createdAt,value
2023-04-23T00:02:19.626Z,12.57
2023-04-23T00:04:50.958Z,12.67
2023-04-23T00:07:20.139Z,11.33
2023-04-23T00:09:52.538Z,11.03
2023-04-23T00:12:19.477Z,11.43
2023-04-23T00:14:46.711Z,11.50
2023-04-23T00:17:13.761Z,12.20
2023-04-23T00:19:40.943Z,11.23
2023-04-23T00:22:08.030Z,10.47
2023-04-23T00:24:37.015Z,10.47
2023-04-23T00:27:04.094Z,11.90
2023-04-23T00:29:31.346Z,10.60
2023-04-23T00:31:58.569Z,10.83
2023-04-23T00:34:26.271Z,11.87
2023-04-23T00:36:53.157Z,11.50
2023-04-23T00:39:20.296Z,11.87
2023-04-23T00:41:48.259Z,11.77
2023-04-23T00:44:15.290Z,11.87
2023-04-23T00:46:43.319Z,12.50
2023-04-23T00:49:10.973Z,13.83
2023-04-23T00:51:37.929Z,13.03
2023-04-23T00:54:04.899Z,17.17
2023-04-23T00:56:32.436Z,16.80
2023-04-23T00:58:59.707Z,16.87
2023-04-23T01:01:26.633Z,14.70
2023-04-23T01:03:54.061Z,14.03
2023-04-23T01:06:21.566Z,14.37
2023-04-23T01:08:48.734Z,11.67
2023-04-23T01:11:16.234Z,11.43
2023-04-23T01:13:44.012Z,11.50
2023-04-23T01:16:11.911Z,11.70
2023-04-23T01:18:41.246Z,11.97
2023-04-23T01:21:10.775Z,11.40
2023-04-23T01:23:38.210Z,9.97
2023-04-23T01:26:05.351Z,10.37
2023-04-23T01:28:33.271Z,10.00
2023-04-23T01:31:00.914Z,9.57
2023-04-23T01:33:28.384Z,11.70
2023-04-23T01:35:56.607Z,10.63
2023-04-23T01:38:25.296Z,9.93
2023-04-23T01:40:52.403Z,10.17
2023-04-23T01:43:20.284Z,9.23
2023-04-23T01:45:47.262Z,10.10
2023-04-23T01:48:14.710Z,10.10
2023-04-23T01:50:42.492Z,8.90
2023-04-23T01:53:09.440Z,10.27
2023-04-23T01:55:40.167Z,10.17
2023-04-23T01:58:07.359Z,10.87
2023-04-23T02:00:34.165Z,10.10
2023-04-23T02:03:01.195Z,9.33
2023-04-23T02:05:29.316Z,10.17
2023-04-23T02:07:56.782Z,9.20
2023-04-23T02:10:23.788Z,9.90
2023-04-23T02:12:50.555Z,8.97
2023-04-23T02:15:17.658Z,9.60
2023-04-23T02:17:44.535Z,9.47
2023-04-23T02:20:11.817Z,9.83
2023-04-23T02:22:42.228Z,9.70
2023-04-23T02:25:09.837Z,9.83
2023-04-23T02:27:37.043Z,9.37
2023-04-23T02:30:04.525Z,9.87
2023-04-23T02:32:31.599Z,10.53
2023-04-23T02:34:59.696Z,10.80
2023-04-23T02:37:27.093Z,11.20
2023-04-23T02:39:54.360Z,11.53
2023-04-23T02:42:21.354Z,10.60
2023-04-23T02:44:48.186Z,11.10
2023-04-23T02:47:15.094Z,9.93
2023-04-23T02:49:41.853Z,11.27
2023-04-23T02:52:08.915Z,10.57
2023-04-23T02:54:37.213Z,10.07
2023-04-23T02:57:06.071Z,12.50
2023-04-23T02:59:33.140Z,10.90
2023-04-23T03:02:00.252Z,10.83
2023-04-23T03:04:27.815Z,10.27
2023-04-23T03:06:54.677Z,10.90
2023-04-23T03:09:21.570Z,9.57
2023-04-23T03:11:48.415Z,9.83
2023-04-23T03:14:15.300Z,9.23
2023-04-23T03:16:42.162Z,10.33
2023-04-23T03:19:08.925Z,10.77
2023-04-23T03:21:35.734Z,9.83
2023-04-23T03:24:02.549Z,9.90
2023-04-23T03:26:29.327Z,9.57
2023-04-23T03:28:56.278Z,9.00
2023-04-23T03:31:23.212Z,9.67
2023-04-23T03:33:49.947Z,9.47
2023-04-23T03:36:16.792Z,10.07
2023-04-23T03:38:43.814Z,9.30
2023-04-23T03:41:11.346Z,9.27
2023-04-23T03:43:38.309Z,9.43
2023-04-23T03:46:05.234Z,9.87
2023-04-23T03:48:32.294Z,10.07
2023-04-23T03:50:59.272Z,9.23
2023-04-23T03:53:26.294Z,10.07
2023-04-23T03:55:53.141Z,9.00
2023-04-23T03:58:21.375Z,9.13
2023-04-23T04:00:49.099Z,9.07
2023-04-23T04:03:16.491Z,9.47
2023-04-23T04:05:44.499Z,9.70
2023-04-23T04:08:11.436Z,8.63
2023-04-23T04:10:38.205Z,9.00
2023-04-23T04:13:05.116Z,9.50
2023-04-23T04:15:33.062Z,9.90
2023-04-23T04:18:01.171Z,9.87
2023-04-23T04:20:31.142Z,8.53
2023-04-23T04:22:58.063Z,9.87
2023-04-23T04:25:24.962Z,10.00
2023-04-23T04:27:51.758Z,9.00
2023-04-23T04:30:18.760Z,9.97
2023-04-23T04:32:46.580Z,8.67
2023-04-23T04:35:14.513Z,9.37
2023-04-23T04:37:43.821Z,9.37
2023-04-23T04:40:11.656Z,8.73
2023-04-23T04:42:39.191Z,8.80
2023-04-23T04:45:08.706Z,9.80
2023-04-23T04:47:36.504Z,9.63
2023-04-23T04:50:04.483Z,8.77
2023-04-23T04:52:31.821Z,9.67
2023-04-23T04:54:58.743Z,11.03
2023-04-23T04:57:25.679Z,9.37
2023-04-23T04:59:52.731Z,9.67
2023-04-23T05:02:21.622Z,8.40
2023-04-23T05:04:49.514Z,10.37
2023-04-23T05:07:16.267Z,9.90
2023-04-23T05:09:44.880Z,9.43
2023-04-23T05:12:12.195Z,9.83
2023-04-23T05:14:39.027Z,9.67
2023-04-23T05:17:06.101Z,10.27
2023-04-23T05:19:32.840Z,9.40
2023-04-23T05:21:59.965Z,9.60
2023-04-23T05:24:26.999Z,10.07
2023-04-23T05:26:53.837Z,10.00
2023-04-23T05:29:20.672Z,8.70
2023-04-23T05:31:47.570Z,8.80
2023-04-23T05:34:14.300Z,8.80
2023-04-23T05:36:42.124Z,9.47
2023-04-23T05:39:09.300Z,8.13
2023-04-23T05:41:36.110Z,8.90
2023-04-23T05:44:02.929Z,9.37
2023-04-23T05:46:29.921Z,8.97
2023-04-23T05:48:56.914Z,9.55
2023-04-23T05:51:24.785Z,9.30
2023-04-23T05:53:51.511Z,9.17
2023-04-23T05:56:18.688Z,8.07
2023-04-23T05:58:45.651Z,9.23
2023-04-23T06:01:12.679Z,9.30
2023-04-23T06:03:42.998Z,8.67
2023-04-23T06:06:10.511Z,7.90
2023-04-23T06:08:37.493Z,8.30
2023-04-23T06:11:04.815Z,8.20
2023-04-23T06:13:31.958Z,8.43
2023-04-23T06:15:59.566Z,9.00
2023-04-23T06:18:27.635Z,8.38
2023-04-23T06:20:56.916Z,8.40
2023-04-23T06:23:23.762Z,7.90
2023-04-23T06:25:51.220Z,6.78
2023-04-23T06:28:18.364Z,7.47
2023-04-23T06:30:45.392Z,7.32
2023-04-23T06:33:12.593Z,7.90
2023-04-23T06:35:39.452Z,7.53
2023-04-23T06:38:06.669Z,7.22
2023-04-23T06:40:33.902Z,6.88
2023-04-23T06:43:04.435Z,6.57
2023-04-23T06:45:33.232Z,6.68
2023-04-23T06:48:00.657Z,6.70
2023-04-23T06:50:27.785Z,6.25
2023-04-23T06:52:56.373Z,5.70
2023-04-23T06:55:26.203Z,6.65
2023-04-23T06:57:53.477Z,5.80
2023-04-23T07:00:20.566Z,7.32
2023-04-23T07:02:47.603Z,6.07
2023-04-23T07:05:15.076Z,6.82
2023-04-23T07:07:43.566Z,5.80
2023-04-23T07:10:13.500Z,5.95
2023-04-23T07:12:41.418Z,5.28
2023-04-23T07:15:09.180Z,5.45
2023-04-23T07:17:36.205Z,5.97
2023-04-23T07:20:06.651Z,4.85
2023-04-23T07:22:35.085Z,5.40
2023-04-23T07:25:02.697Z,5.78
2023-04-23T07:27:29.542Z,6.28
2023-04-23T07:29:56.493Z,5.97
2023-04-23T07:32:26.177Z,5.32
2023-04-23T07:34:53.392Z,5.75
2023-04-23T07:37:21.706Z,5.18
2023-04-23T07:39:49.239Z,6.03
2023-04-23T07:42:16.613Z,6.25
2023-04-23T07:44:43.646Z,5.45
2023-04-23T07:47:10.466Z,5.30
2023-04-23T07:49:37.490Z,5.07
2023-04-23T07:52:04.382Z,5.03
2023-04-23T07:54:31.227Z,5.18
2023-04-23T07:56:58.170Z,5.07
2023-04-23T07:59:24.920Z,5.55
2023-04-23T08:01:52.045Z,4.97
2023-04-23T08:04:19.101Z,5.30
2023-04-23T08:06:46.142Z,5.75
2023-04-23T08:09:12.881Z,5.30
2023-04-23T08:11:40.679Z,5.38
2023-04-23T08:14:07.739Z,4.32
2023-04-23T08:16:38.621Z,3.88
2023-04-23T08:19:06.532Z,4.32
2023-04-23T08:21:35.066Z,4.90
2023-04-23T08:24:03.222Z,3.80
2023-04-23T08:26:31.112Z,4.57
2023-04-23T08:28:58.029Z,4.25
2023-04-23T08:31:26.870Z,4.20
2023-04-23T08:33:54.677Z,4.70
2023-04-23T08:36:22.122Z,3.75
2023-04-23T08:38:49.089Z,3.80
2023-04-23T08:41:18.725Z,3.65
2023-04-23T08:43:52.741Z,3.55
2023-04-23T08:46:19.906Z,3.38
2023-04-23T08:48:50.428Z,3.83
2023-04-23T08:51:21.496Z,3.85
2023-04-23T08:53:56.120Z,3.53
2023-04-23T08:56:24.209Z,3.70
2023-04-23T08:58:51.288Z,3.28
2023-04-23T09:01:19.392Z,4.18
2023-04-23T09:03:47.944Z,3.25
2023-04-23T09:06:14.759Z,3.35
2023-04-23T09:08:41.980Z,3.15
2023-04-23T09:11:09.585Z,3.10
2023-04-23T09:13:37.084Z,2.78
2023-04-23T09:16:05.450Z,3.33
2023-04-23T09:18:32.448Z,3.20
2023-04-23T09:21:01.147Z,2.95
2023-04-23T09:23:27.914Z,3.35
2023-04-23T09:25:56.868Z,3.65
2023-04-23T09:28:38.100Z,3.17
2023-04-23T09:31:08.088Z,3.63
2023-04-23T09:33:38.452Z,3.45
2023-04-23T09:36:15.196Z,3.22
2023-04-23T09:38:42.207Z,3.38
2023-04-23T09:41:27.068Z,3.72
2023-04-23T09:43:55.498Z,4.45
2023-04-23T09:46:36.439Z,4.10
2023-04-23T09:49:07.756Z,4.00
2023-04-23T09:51:42.633Z,3.78
2023-04-23T09:54:13.794Z,3.20
2023-04-23T09:56:42.078Z,3.55
2023-04-23T09:59:32.057Z,3.28
2023-04-23T10:02:07.892Z,3.40
2023-04-23T10:04:35.970Z,3.67
2023-04-23T10:07:18.000Z,3.40
2023-04-23T10:09:47.237Z,3.80
2023-04-23T10:14:46.630Z,4.13
2023-04-23T10:17:14.102Z,3.42
2023-04-23T10:19:43.608Z,3.50
2023-04-23T10:24:47.915Z,3.85
2023-04-23T10:27:28.834Z,3.10
2023-04-23T10:30:06.419Z,3.33
2023-04-23T10:32:38.340Z,3.20
2023-04-23T10:35:07.368Z,3.38
2023-04-23T10:37:35.963Z,3.50
2023-04-23T10:40:14.334Z,3.33
2023-04-23T10:42:43.458Z,3.60
2023-04-23T10:47:48.219Z,3.40
2023-04-23T10:50:37.825Z,3.70
2023-04-23T10:53:05.573Z,3.33
2023-04-23T10:55:32.982Z,3.85
2023-04-23T10:58:08.441Z,3.65
2023-04-23T11:00:41.367Z,3.45
2023-04-23T11:03:53.169Z,3.65
2023-04-23T11:06:49.037Z,3.20
2023-04-23T11:09:36.391Z,4.05
2023-04-23T11:12:07.648Z,3.72
2023-04-23T11:14:43.618Z,3.60
2023-04-23T11:17:14.575Z,3.50
2023-04-23T11:19:42.366Z,4.05
2023-04-23T11:22:19.755Z,3.58
2023-04-23T11:24:48.885Z,3.70
2023-04-23T11:27:19.758Z,3.50
2023-04-23T11:29:47.817Z,3.10
2023-04-23T11:32:16.957Z,3.90
2023-04-23T11:34:45.423Z,3.40
2023-04-23T11:37:13.473Z,3.20
2023-04-23T11:39:42.131Z,3.05
2023-04-23T11:42:14.214Z,2.75
2023-04-23T11:44:42.500Z,3.13
2023-04-23T11:47:11.345Z,3.15
2023-04-23T11:49:39.073Z,3.30
2023-04-23T11:52:05.847Z,3.60
2023-04-23T11:54:33.565Z,3.38
2023-04-23T11:57:01.539Z,3.55
2023-04-23T11:59:28.812Z,3.00
2023-04-23T12:01:57.478Z,3.22
2023-04-23T12:04:29.787Z,3.33
2023-04-23T12:06:57.873Z,3.03
2023-04-23T12:09:27.254Z,3.15
2023-04-23T12:11:54.410Z,3.22
2023-04-23T12:14:30.077Z,3.28
2023-04-23T12:16:57.810Z,2.90
2023-04-23T12:19:29.549Z,3.05
2023-04-23T12:21:57.363Z,2.95
2023-04-23T12:24:28.949Z,3.15
2023-04-23T12:27:02.542Z,3.42
2023-04-23T12:29:30.962Z,3.42
2023-04-23T12:32:00.820Z,3.53
2023-04-23T12:34:27.554Z,3.22
2023-04-23T12:36:55.868Z,2.85
2023-04-23T12:39:34.089Z,2.63
2023-04-23T12:42:02.975Z,2.92
2023-04-23T12:44:30.477Z,3.22
2023-04-23T12:46:59.295Z,3.58
2023-04-23T12:49:29.819Z,2.65
2023-04-23T12:52:00.980Z,2.95
2023-04-23T12:54:29.775Z,3.08
2023-04-23T12:56:56.695Z,3.28
2023-04-23T12:59:23.906Z,3.22
2023-04-23T13:01:51.601Z,2.92
2023-04-23T13:04:18.494Z,2.80
2023-04-23T13:06:45.638Z,3.25
2023-04-23T13:09:12.814Z,3.08
2023-04-23T13:11:40.843Z,3.10
2023-04-23T13:14:08.220Z,2.45
2023-04-23T13:16:35.005Z,3.03
2023-04-23T13:19:01.766Z,3.00
2023-04-23T13:21:28.545Z,3.17
2023-04-23T13:23:56.432Z,3.00
2023-04-23T13:26:23.286Z,2.97
2023-04-23T13:28:50.105Z,3.20
2023-04-23T13:31:16.849Z,3.10
2023-04-23T13:33:43.718Z,3.20
2023-04-23T13:36:10.418Z,2.80
2023-04-23T13:38:37.184Z,3.38
2023-04-23T13:41:04.508Z,2.70
2023-04-23T13:43:31.333Z,2.97
2023-04-23T13:45:58.250Z,3.13
2023-04-23T13:48:28.788Z,3.55
2023-04-23T13:50:55.863Z,3.35
2023-04-23T13:53:22.885Z,3.80
2023-04-23T13:55:49.751Z,3.13
2023-04-23T13:58:16.638Z,3.38
2023-04-23T14:00:43.963Z,3.40
2023-04-23T14:03:11.130Z,2.58
2023-04-23T14:05:38.522Z,3.20
2023-04-23T14:08:05.485Z,3.17
2023-04-23T14:10:32.732Z,3.38
2023-04-23T14:12:59.593Z,3.10
2023-04-23T14:15:26.535Z,3.25
2023-04-23T14:17:53.414Z,2.72
2023-04-23T14:20:20.890Z,3.40
2023-04-23T14:23:02.778Z,3.40
2023-04-23T14:25:40.682Z,3.00
2023-04-23T14:28:33.313Z,3.00
2023-04-23T14:31:01.575Z,3.50
2023-04-23T14:33:28.345Z,3.20
2023-04-23T14:35:55.249Z,3.25
2023-04-23T14:38:22.039Z,2.90
2023-04-23T14:40:48.768Z,3.10
2023-04-23T14:43:16.357Z,2.95
2023-04-23T14:45:43.366Z,3.28
2023-04-23T14:48:10.613Z,3.60
2023-04-23T14:50:37.382Z,3.53
2023-04-23T14:53:07.104Z,3.20
2023-04-23T14:55:34.359Z,2.92
2023-04-23T14:58:01.599Z,3.83
2023-04-23T15:00:28.729Z,3.42
2023-04-23T15:02:56.602Z,2.97
2023-04-23T15:05:23.786Z,3.25
2023-04-23T15:07:51.877Z,3.95
2023-04-23T15:10:19.834Z,3.40
2023-04-23T15:13:08.390Z,3.00
2023-04-23T15:15:49.527Z,3.03
2023-04-23T15:18:17.124Z,2.90
2023-04-23T15:20:44.545Z,3.38
2023-04-23T15:23:11.549Z,3.08
2023-04-23T15:25:39.510Z,3.00
2023-04-23T15:28:07.123Z,3.60
2023-04-23T15:30:34.162Z,3.35
2023-04-23T15:33:01.054Z,3.30
2023-04-23T15:35:28.390Z,3.13
2023-04-23T15:37:55.328Z,3.53
2023-04-23T15:40:22.151Z,3.50
2023-04-23T15:42:50.126Z,3.55
2023-04-23T15:45:17.204Z,4.35
2023-04-23T15:47:44.356Z,4.15
2023-04-23T15:50:12.845Z,3.78
2023-04-23T15:52:41.792Z,3.50
2023-04-23T15:55:09.074Z,2.95
2023-04-23T15:57:35.810Z,3.60
2023-04-23T16:00:04.384Z,3.53
2023-04-23T16:02:34.550Z,4.00
2023-04-23T16:05:01.894Z,3.65
2023-04-23T16:07:28.815Z,3.88
2023-04-23T16:09:55.867Z,3.75
2023-04-23T16:12:22.672Z,3.50
2023-04-23T16:14:49.602Z,4.03
2023-04-23T16:17:16.687Z,3.78
2023-04-23T16:19:43.833Z,3.88
2023-04-23T16:22:10.867Z,3.78
2023-04-23T16:24:37.688Z,3.78
2023-04-23T16:27:06.704Z,4.03
2023-04-23T16:29:33.544Z,3.38
2023-04-23T16:32:00.329Z,4.25
2023-04-23T16:34:27.057Z,3.72
2023-04-23T16:36:53.878Z,3.83
2023-04-23T16:39:20.822Z,3.72
2023-04-23T16:41:47.982Z,4.45
2023-04-23T16:44:14.671Z,4.00
2023-04-23T16:46:41.560Z,4.10
2023-04-23T16:49:08.513Z,3.38
2023-04-23T16:51:35.293Z,4.15
2023-04-23T16:54:01.980Z,4.43
2023-04-23T16:56:28.798Z,3.80
2023-04-23T16:58:55.877Z,3.72
2023-04-23T17:01:22.761Z,4.70
2023-04-23T17:03:49.657Z,4.97
2023-04-23T17:06:29.727Z,3.80
2023-04-23T17:08:57.834Z,4.20
2023-04-23T17:11:25.813Z,5.50
2023-04-23T17:13:52.954Z,8.85
2023-04-23T17:16:20.045Z,7.15
2023-04-23T17:18:46.848Z,5.03
2023-04-23T17:21:13.765Z,5.47
2023-04-23T17:23:40.473Z,5.00
2023-04-23T17:26:07.288Z,4.78
2023-04-23T17:28:34.032Z,5.65
2023-04-23T17:31:02.672Z,4.45
2023-04-23T17:33:29.947Z,5.15
2023-04-23T17:35:57.130Z,4.43
2023-04-23T17:38:24.717Z,5.00
2023-04-23T17:40:52.775Z,5.07
2023-04-23T17:43:20.049Z,4.40
2023-04-23T17:45:47.701Z,5.03
2023-04-23T17:48:15.348Z,4.40
2023-04-23T17:50:42.841Z,5.20
2023-04-23T17:53:09.989Z,5.43
2023-04-23T17:55:36.681Z,4.75
2023-04-23T17:58:05.717Z,6.25
2023-04-23T18:00:36.708Z,5.43
2023-04-23T18:03:04.380Z,5.57
2023-04-23T18:05:31.734Z,5.40
2023-04-23T18:07:58.654Z,5.78
2023-04-23T18:10:25.656Z,5.57
2023-04-23T18:12:52.818Z,6.03
2023-04-23T18:15:20.245Z,5.60
2023-04-23T18:17:48.242Z,5.53
2023-04-23T18:20:16.407Z,5.35
2023-04-23T18:22:44.365Z,5.72
2023-04-23T18:25:11.550Z,6.25
2023-04-23T18:27:39.103Z,6.22
2023-04-23T18:30:08.291Z,6.63
2023-04-23T18:32:40.911Z,6.85
2023-04-23T18:35:09.084Z,6.07
2023-04-23T18:37:53.520Z,7.60
2023-04-23T18:40:20.590Z,6.88
2023-04-23T18:42:47.446Z,5.65
2023-04-23T18:45:14.262Z,7.05
2023-04-23T18:47:51.189Z,9.35
2023-04-23T18:50:43.372Z,11.75
2023-04-23T18:53:10.325Z,10.40
2023-04-23T18:55:38.172Z,9.48
2023-04-23T18:58:05.133Z,8.57
2023-04-23T19:00:31.969Z,7.40
2023-04-23T19:02:58.998Z,7.28
2023-04-23T19:05:26.228Z,6.93
2023-04-23T19:07:53.238Z,6.25
2023-04-23T19:10:20.238Z,6.30
2023-04-23T19:12:47.004Z,7.55
2023-04-23T19:15:15.613Z,6.43
2023-04-23T19:17:42.768Z,7.50
2023-04-23T19:20:11.471Z,6.97
2023-04-23T19:22:41.731Z,7.97
2023-04-23T19:25:09.377Z,7.90
2023-04-23T19:27:36.452Z,7.90
2023-04-23T19:30:05.439Z,7.30
2023-04-23T19:32:35.624Z,8.32
2023-04-23T19:35:04.546Z,7.35
2023-04-23T19:37:32.308Z,7.32
2023-04-23T19:39:59.663Z,6.80
2023-04-23T19:42:26.501Z,6.90
2023-04-23T19:44:53.292Z,7.60
2023-04-23T19:47:20.206Z,8.55
2023-04-23T19:49:47.030Z,7.60
2023-04-23T19:52:21.462Z,7.60
2023-04-23T19:54:49.973Z,7.07
2023-04-23T19:57:22.153Z,6.75
2023-04-23T19:59:54.709Z,7.20
2023-04-23T20:02:21.654Z,8.23
2023-04-23T20:04:48.731Z,7.63
2023-04-23T20:07:15.483Z,7.70
2023-04-23T20:09:43.536Z,8.82
2023-04-23T20:12:12.586Z,8.05
2023-04-23T20:14:39.311Z,6.93
2023-04-23T20:17:06.806Z,6.65
2023-04-23T20:19:33.824Z,7.43
2023-04-23T20:22:02.534Z,7.57
2023-04-23T20:24:29.743Z,7.53
2023-04-23T20:26:58.634Z,6.95
2023-04-23T20:29:25.748Z,6.93
2023-04-23T20:31:52.898Z,7.35
2023-04-23T20:34:19.859Z,6.63
2023-04-23T20:36:51.225Z,6.95
2023-04-23T20:39:22.243Z,6.78
2023-04-23T20:41:50.618Z,7.03
2023-04-23T20:44:18.153Z,7.80
2023-04-23T20:46:45.420Z,8.05
2023-04-23T20:49:12.352Z,8.80
2023-04-23T20:51:39.243Z,8.60
2023-04-23T20:54:07.105Z,8.20
2023-04-23T20:56:33.948Z,6.63
2023-04-23T20:59:00.888Z,7.82
2023-04-23T21:01:27.967Z,7.88
2023-04-23T21:03:55.340Z,8.90
2023-04-23T21:06:22.799Z,8.73
2023-04-23T21:08:49.809Z,8.48
2023-04-23T21:11:18.562Z,10.95
2023-04-23T21:13:46.439Z,12.20
2023-04-23T21:16:13.806Z,9.10
2023-04-23T21:18:41.646Z,7.65
2023-04-23T21:21:08.625Z,8.30
2023-04-23T21:23:35.968Z,8.15
2023-04-23T21:26:03.447Z,7.78
2023-04-23T21:28:31.160Z,7.63
2023-04-23T21:31:05.956Z,7.85
2023-04-23T21:33:32.878Z,7.05
2023-04-23T21:35:59.766Z,8.00
2023-04-23T21:38:26.661Z,7.45
2023-04-23T21:40:53.953Z,8.07
2023-04-23T21:43:21.190Z,8.45
2023-04-23T21:45:48.099Z,7.75
2023-04-23T21:48:15.148Z,7.72
2023-04-23T21:50:42.113Z,8.05
2023-04-23T21:53:09.788Z,7.95
2023-04-23T21:55:36.841Z,8.38
2023-04-23T21:58:16.638Z,8.25
2023-04-23T22:00:45.291Z,8.23
2023-04-23T22:03:17.040Z,8.80
2023-04-23T22:05:52.685Z,8.33
2023-04-23T22:08:20.671Z,8.37
2023-04-23T22:10:47.491Z,8.70
2023-04-23T22:13:15.094Z,8.48
2023-04-23T22:15:42.429Z,8.40
2023-04-23T22:18:09.360Z,8.48
2023-04-23T22:20:37.693Z,9.38
2023-04-23T22:23:04.749Z,8.57
2023-04-23T22:25:31.638Z,7.83
2023-04-23T22:27:59.066Z,8.30
2023-04-23T22:30:26.032Z,8.67
2023-04-23T22:32:53.081Z,8.32
2023-04-23T22:35:20.135Z,7.57
2023-04-23T22:37:47.182Z,9.00
2023-04-23T22:40:14.034Z,8.75
2023-04-23T22:42:42.388Z,8.30
2023-04-23T22:45:09.698Z,7.40
2023-04-23T22:47:37.037Z,8.57
2023-04-23T22:50:04.762Z,8.60
2023-04-23T22:52:31.928Z,9.27
2023-04-23T22:54:58.772Z,9.40
2023-04-23T22:57:25.712Z,8.40
2023-04-23T22:59:52.717Z,8.32
2023-04-23T23:02:19.675Z,10.33
2023-04-23T23:04:46.806Z,9.33
2023-04-23T23:07:14.680Z,9.02
2023-04-23T23:09:41.817Z,8.60
2023-04-23T23:12:09.322Z,9.30
2023-04-23T23:14:37.880Z,9.17
2023-04-23T23:17:06.449Z,8.83
2023-04-23T23:19:33.878Z,9.07
2023-04-23T23:22:00.992Z,9.10
2023-04-23T23:24:28.018Z,9.03
2023-04-23T23:26:54.823Z,9.43
2023-04-23T23:29:22.091Z,13.20
2023-04-23T23:31:49.154Z,12.20
2023-04-23T23:34:15.970Z,11.47
2023-04-23T23:36:45.049Z,11.53
2023-04-23T23:39:13.283Z,9.00
2023-04-23T23:41:40.217Z,9.43
2023-04-23T23:44:07.066Z,10.17
2023-04-23T23:46:34.945Z,9.23
2023-04-23T23:49:03.823Z,9.17
2023-04-23T23:51:31.014Z,10.13
2023-04-23T23:53:59.054Z,9.77
2023-04-23T23:56:26.051Z,9.77
2023-04-23T23:58:53.938Z,9.43
